Time;durP1;ratioP1;P1;durP2;ratioP2;P2;SDS_P1;SDS_P2;PMS_P1;PMS_P2;Temp;Humidity;BMP_temperature;BMP_pressure;BME280_temperature;BME280_humidity;BME280_pressure;Samples;Min_cycle;Max_cycle;Signal;HPM_P1;HPM_P2
2023/07/16 00:01:51;;;;;;;;;7.00;5.33;;;;;20.94;42.30;100747.13;5072582;28;45305;-69
2023/07/16 00:04:16;;;;;;;;;4.00;4.00;;;;;21.11;42.79;100779.41;5088019;28;45203;-71
2023/07/16 00:06:42;;;;;;;;;6.00;5.00;;;;;20.98;42.69;100772.41;5090534;28;45021;-70
2023/07/16 00:09:07;;;;;;;;;5.67;4.00;;;;;21.06;42.95;100785.88;5090119;28;45012;-70
2023/07/16 00:11:32;;;;;;;;;6.00;3.33;;;;;20.91;42.98;100758.03;5093418;28;45234;-71
2023/07/16 00:13:58;;;;;;;;;7.00;5.00;;;;;21.01;42.95;100775.06;5093016;28;45600;-71
2023/07/16 00:16:23;;;;;;;;;3.00;3.00;;;;;20.96;42.95;100772.41;5074006;28;55360;-70
2023/07/16 00:18:48;;;;;;;;;3.67;3.67;;;;;20.97;43.32;100782.38;5092804;28;45323;-70
2023/07/16 00:21:14;;;;;;;;;7.00;6.00;;;;;20.86;43.23;100778.94;5074299;28;45214;-72
2023/07/16 00:23:39;;;;;;;;;5.00;4.00;;;;;20.83;43.71;100778.97;5070271;28;47407;-69
2023/07/16 00:26:04;;;;;;;;;8.00;4.67;;;;;20.80;43.70;100781.72;5084967;28;46668;-69
2023/07/16 00:28:30;;;;;;;;;5.00;3.00;;;;;20.80;44.04;100782.66;5093817;28;45117;-70
2023/07/16 00:30:55;;;;;;;;;6.67;4.00;;;;;20.76;44.08;100772.75;5069127;28;45464;-71
2023/07/16 00:33:20;;;;;;;;;5.33;5.33;;;;;20.72;44.24;100787.31;5092399;28;45492;-71
2023/07/16 00:35:50;;;;;;;;;12.00;6.00;;;;;20.65;44.68;100772.00;5094125;28;45142;-72
2023/07/16 00:38:18;;;;;;;;;10.00;6.67;;;;;20.64;44.69;100778.38;5076376;28;45101;-72
2023/07/16 00:40:43;;;;;;;;;5.33;3.67;;;;;20.69;44.84;100792.78;5075416;28;45183;-69
2023/07/16 00:43:09;;;;;;;;;6.33;5.33;;;;;20.65;45.07;100791.00;5092280;28;46336;-70
2023/07/16 00:45:34;;;;;;;;;9.00;8.00;;;;;20.61;45.20;100784.69;5091228;28;45214;-70
2023/07/16 00:48:00;;;;;;;;;5.67;4.00;;;;;20.56;45.34;100780.25;5090977;28;45024;-70
2023/07/16 00:50:25;;;;;;;;;7.33;4.33;;;;;20.49;45.56;100770.38;5090705;28;45392;-71
2023/07/16 00:52:51;;;;;;;;;7.00;5.00;;;;;20.45;45.54;100783.13;5063700;28;45749;-71
2023/07/16 00:55:16;;;;;;;;;4.67;3.00;;;;;20.46;45.88;100782.22;5091645;28;45099;-70
2023/07/16 00:57:42;;;;;;;;;5.00;5.00;;;;;20.46;45.72;100790.34;5071513;28;45269;-69
2023/07/16 01:00:09;;;;;;;;;5.67;5.67;;;;;20.46;45.93;100778.56;5090350;28;45583;-72
2023/07/16 01:02:35;;;;;;;;;5.67;5.00;;;;;20.42;46.19;100786.75;5089999;28;46909;-71
2023/07/16 01:05:01;;;;;;;;;5.33;5.33;;;;;20.31;46.62;100783.31;5091412;28;45123;-70
2023/07/16 01:07:30;;;;;;;;;5.67;4.00;;;;;20.31;46.46;100787.81;5089491;28;45277;-70
2023/07/16 01:09:56;;;;;;;;;5.00;5.00;;;;;20.19;46.63;100767.19;5087743;28;45162;-71
2023/07/16 01:12:22;;;;;;;;;10.00;7.00;;;;;20.21;46.85;100789.75;5089545;28;45655;-70
2023/07/16 01:14:49;;;;;;;;;5.00;4.33;;;;;20.07;46.89;100768.25;5086263;28;45404;-69
2023/07/16 01:17:14;;;;;;;;;6.00;5.00;;;;;20.13;47.20;100800.72;5089037;28;45109;-69
2023/07/16 01:19:39;;;;;;;;;10.00;7.00;;;;;20.07;47.50;100781.81;5069466;28;45070;-69
2023/07/16 01:22:30;;;;;;;;;8.00;4.33;;;;;20.07;47.71;100807.09;5089638;28;45080;-70
2023/07/16 01:25:22;;;;;;;;;6.67;6.00;;;;;20.04;47.58;100798.09;5071046;28;45051;-71
2023/07/16 01:27:47;;;;;;;;;5.33;5.00;;;;;20.02;47.67;100799.94;5067700;28;45205;-71
2023/07/16 01:30:18;;;;;;;;;9.33;5.00;;;;;20.00;47.81;100809.91;5090552;28;45083;-70
2023/07/16 01:32:45;;;;;;;;;12.33;9.33;;;;;19.96;47.77;100811.75;5088739;28;45731;-72
2023/07/16 01:35:12;;;;;;;;;6.33;5.00;;;;;19.91;48.00;100805.47;5083983;27;45388;-69
2023/07/16 01:37:37;;;;;;;;;9.00;5.00;;;;;19.91;48.22;100813.63;5090863;28;45057;-70
2023/07/16 01:40:04;;;;;;;;;8.33;7.00;;;;;19.85;48.67;100813.72;5092368;28;45215;-71
2023/07/16 01:42:29;;;;;;;;;8.00;6.33;;;;;19.76;48.45;100797.53;5075494;28;45810;-70
2023/07/16 01:44:55;;;;;;;;;7.67;5.67;;;;;19.81;48.13;100811.94;5093593;28;45047;-69
2023/07/16 01:47:20;;;;;;;;;6.33;6.00;;;;;19.80;48.68;100823.66;5073284;28;45413;-69
2023/07/16 01:49:46;;;;;;;;;7.33;6.00;;;;;19.74;48.78;100815.59;5091992;28;47334;-71
2023/07/16 01:52:12;;;;;;;;;9.67;7.67;;;;;19.70;49.07;100818.34;5069172;28;46051;-70
2023/07/16 01:54:38;;;;;;;;;9.67;6.33;;;;;19.68;49.30;100816.53;5092241;28;45698;-70
2023/07/16 01:57:03;;;;;;;;;9.33;6.33;;;;;19.59;49.10;100803.97;5093028;28;45223;-71
2023/07/16 01:59:29;;;;;;;;;8.67;7.33;;;;;19.61;49.35;100817.53;5075589;28;45382;-72
2023/07/16 02:01:54;;;;;;;;;7.33;5.33;;;;;19.59;49.37;100817.53;5092021;28;46109;-72
2023/07/16 02:04:20;;;;;;;;;8.67;6.33;;;;;19.59;49.70;100816.66;5089421;28;45002;-71
2023/07/16 02:06:47;;;;;;;;;8.67;6.67;;;;;19.51;49.67;100812.19;5090692;28;45296;-71
2023/07/16 02:09:13;;;;;;;;;13.67;9.67;;;;;19.54;49.72;100818.50;5089443;28;44893;-71
2023/07/16 02:11:38;;;;;;;;;11.00;6.00;;;;;19.54;49.90;100829.34;5091305;28;45746;-70
2023/07/16 02:14:04;;;;;;;;;8.67;6.33;;;;;19.40;49.87;100810.47;5092023;28;45179;-71
2023/07/16 02:16:29;;;;;;;;;10.67;8.00;;;;;19.44;50.24;100824.00;5071421;28;45507;-70
2023/07/16 02:18:54;;;;;;;;;8.00;6.00;;;;;19.46;50.20;100838.41;5073001;28;51362;-72
2023/07/16 02:21:20;;;;;;;;;8.67;8.67;;;;;19.27;50.52;100817.81;5087270;28;45453;-72
2023/07/16 02:23:45;;;;;;;;;10.67;8.00;;;;;19.37;50.87;100832.19;5074158;28;45145;-72
2023/07/16 02:26:10;;;;;;;;;7.33;5.00;;;;;19.30;50.80;100832.25;5075716;28;45718;-71
2023/07/16 02:28:36;;;;;;;;;10.33;8.00;;;;;19.27;50.69;100831.34;5093104;28;45386;-74
2023/07/16 02:31:03;;;;;;;;;8.67;5.00;;;;;19.16;50.80;100823.34;5088733;28;45591;-72
2023/07/16 02:33:28;;;;;;;;;8.33;5.00;;;;;19.18;50.87;100820.63;5094188;28;45107;-72
2023/07/16 02:35:53;;;;;;;;;11.33;5.67;;;;;19.24;51.13;100840.44;5092836;28;45018;-71
2023/07/16 02:38:19;;;;;;;;;11.00;6.00;;;;;19.10;51.12;100824.25;5093939;28;45130;-75
2023/07/16 02:40:46;;;;;;;;;10.00;4.67;;;;;19.15;51.03;100844.13;5091879;28;45332;-72
2023/07/16 02:43:12;;;;;;;;;8.67;7.00;;;;;19.17;51.07;100841.38;5091796;28;45346;-73
2023/07/16 02:45:37;;;;;;;;;4.00;4.00;;;;;19.23;51.15;100856.69;5091246;28;45517;-73
2023/07/16 02:48:06;;;;;;;;;6.00;6.00;;;;;19.27;51.26;100853.94;5073924;28;45270;-72
2023/07/16 02:50:35;;;;;;;;;5.00;5.00;;;;;19.32;51.03;100853.91;5085457;28;45015;-71
2023/07/16 02:53:05;;;;;;;;;6.33;4.67;;;;;19.34;50.88;100852.97;5068823;28;45470;-72
2023/07/16 02:55:30;;;;;;;;;7.00;4.00;;;;;19.41;50.70;100858.34;5092407;28;45305;-72
2023/07/16 02:57:56;;;;;;;;;11.00;8.33;;;;;19.46;50.81;100864.63;5073578;28;45271;-72
2023/07/16 03:00:22;;;;;;;;;7.33;6.00;;;;;19.43;50.72;100865.53;5091556;28;45331;-73
2023/07/16 03:02:48;;;;;;;;;5.33;5.33;;;;;19.36;50.67;100847.56;5091092;28;45634;-73
2023/07/16 03:05:18;;;;;;;;;6.67;4.67;;;;;19.46;50.56;100868.22;5092680;28;45378;-73
2023/07/16 03:07:43;;;;;;;;;6.00;5.33;;;;;19.25;50.87;100838.59;5091451;28;45138;-71
2023/07/16 03:10:09;;;;;;;;;3.33;3.00;;;;;19.43;50.78;100870.97;5091922;28;45185;-72
2023/07/16 03:12:34;;;;;;;;;7.00;7.00;;;;;19.43;50.85;100872.78;5070498;28;45068;-74
2023/07/16 03:15:00;;;;;;;;;7.00;5.67;;;;;19.45;51.00;100874.59;5090925;28;45304;-71
2023/07/16 03:17:25;;;;;;;;;6.67;5.00;;;;;19.32;51.06;100862.94;5093270;28;45103;-73
2023/07/16 03:19:50;;;;;;;;;6.33;6.33;;;;;19.22;51.11;100847.69;5074955;28;45715;-73
2023/07/16 03:22:16;;;;;;;;;9.00;7.00;;;;;19.10;51.57;100843.22;5093660;28;45173;-73
2023/07/16 03:24:41;;;;;;;;;7.67;4.33;;;;;19.18;51.70;100870.25;5093829;28;44917;-72
2023/07/16 03:27:07;;;;;;;;;11.33;8.33;;;;;19.12;52.04;100864.88;5093705;28;45177;-75
2023/07/16 03:29:36;;;;;;;;;6.67;5.00;;;;;19.03;52.29;100865.84;5091788;28;45754;-71
2023/07/16 03:32:02;;;;;;;;;6.00;6.00;;;;;19.01;52.60;100869.50;5075910;28;45082;-72
2023/07/16 03:34:27;;;;;;;;;4.00;4.00;;;;;19.00;52.79;100889.34;5088621;28;44987;-73
2023/07/16 03:36:52;;;;;;;;;15.67;6.33;;;;;18.94;53.24;100885.78;5088970;27;49097;-74
2023/07/16 03:39:18;;;;;;;;;9.67;6.00;;;;;18.87;53.19;100873.16;5088465;28;45701;-73
2023/07/16 03:41:43;;;;;;;;;14.00;8.67;;;;;18.85;53.35;100871.38;5090651;28;45449;-73
2023/07/16 03:44:09;;;;;;;;;9.33;9.33;;;;;18.90;53.24;100878.56;5090862;28;45315;-74
2023/07/16 03:46:34;;;;;;;;;14.00;9.00;;;;;18.85;53.56;100874.97;5091529;28;44930;-75
2023/07/16 03:49:00;;;;;;;;;6.00;5.00;;;;;18.86;53.45;100874.09;5089969;28;45305;-74
2023/07/16 03:51:25;;;;;;;;;10.67;7.33;;;;;18.87;53.48;100896.63;5089378;28;45126;-72
2023/07/16 03:53:50;;;;;;;;;13.00;8.00;;;;;18.84;53.48;100886.75;5090695;27;45224;-72
2023/07/16 03:56:16;;;;;;;;;8.33;7.00;;;;;18.69;53.68;100859.69;5092323;28;47516;-74
2023/07/16 03:58:41;;;;;;;;;13.67;9.67;;;;;18.70;53.87;100889.47;5093208;28;46101;-73
2023/07/16 04:01:06;;;;;;;;;10.00;7.67;;;;;18.74;54.10;100891.25;5086116;28;45068;-73
2023/07/16 04:03:32;;;;;;;;;10.33;7.33;;;;;18.72;53.92;100892.16;5092087;28;45384;-73
2023/07/16 04:06:05;;;;;;;;;8.33;5.00;;;;;18.45;53.75;100844.50;5091564;28;45224;-73
2023/07/16 04:08:30;;;;;;;;;6.67;5.00;;;;;18.62;53.88;100874.19;5074501;28;47529;-73
2023/07/16 04:10:56;;;;;;;;;8.33;7.00;;;;;18.69;54.26;100905.69;5092376;28;45160;-74
2023/07/16 04:13:21;;;;;;;;;10.33;7.33;;;;;18.62;54.25;100885.00;5092160;28;45088;-73
2023/07/16 04:15:46;;;;;;;;;9.33;8.67;;;;;18.59;54.34;100889.53;5084008;28;45599;-72
2023/07/16 04:18:11;;;;;;;;;7.67;6.33;;;;;18.62;54.46;100903.94;5091188;28;45591;-73
2023/07/16 04:20:37;;;;;;;;;12.00;8.67;;;;;18.58;54.30;100886.81;5092439;28;45059;-74
2023/07/16 04:23:02;;;;;;;;;13.00;9.33;;;;;18.57;54.27;100893.13;5074019;28;45061;-73
2023/07/16 04:25:28;;;;;;;;;9.67;5.67;;;;;18.73;54.58;100899.38;5084767;28;45309;-73
2023/07/16 04:27:53;;;;;;;;;9.33;7.00;;;;;18.71;54.51;100912.94;5089002;28;53383;-71
2023/07/16 04:30:18;;;;;;;;;16.00;6.33;;;;;18.70;54.46;100912.94;5091041;28;46127;-71
2023/07/16 04:32:44;;;;;;;;;4.33;4.33;;;;;18.68;55.35;100923.75;5090644;28;44942;-72
2023/07/16 04:35:09;;;;;;;;;9.33;7.33;;;;;18.72;54.73;100927.34;5090097;28;45329;-73
2023/07/16 04:37:34;;;;;;;;;12.67;9.00;;;;;18.74;54.79;100922.81;5072847;28;47175;-73
2023/07/16 04:40:00;;;;;;;;;10.67;6.67;;;;;18.67;54.95;100904.81;5091929;28;46953;-73
2023/07/16 04:42:25;;;;;;;;;6.33;5.33;;;;;18.74;54.68;100920.13;5090931;28;44945;-73
2023/07/16 04:44:50;;;;;;;;;10.00;9.33;;;;;18.69;55.60;100914.75;5090933;28;45273;-74
2023/07/16 04:47:16;;;;;;;;;15.67;9.67;;;;;18.67;55.07;100935.47;5091105;28;45201;-73
2023/07/16 04:49:41;;;;;;;;;5.00;3.00;;;;;18.64;55.59;100919.25;5065358;28;45140;-72
2023/07/16 04:52:06;;;;;;;;;8.33;4.67;;;;;18.66;55.34;100935.47;5073746;28;45119;-73
2023/07/16 04:54:38;;;;;;;;;9.67;7.67;;;;;18.51;55.51;100921.13;5072967;28;45115;-72
2023/07/16 04:57:05;;;;;;;;;7.00;6.00;;;;;18.62;55.57;100928.31;5091204;28;46170;-73
2023/07/16 04:59:31;;;;;;;;;6.00;3.00;;;;;18.53;55.76;100922.00;5086967;28;46813;-72
2023/07/16 05:01:56;;;;;;;;;7.33;5.33;;;;;18.61;55.44;100935.53;5090585;28;47615;-72
2023/07/16 05:04:22;;;;;;;;;10.00;8.00;;;;;18.57;55.51;100948.13;5090987;28;45144;-74
2023/07/16 05:06:47;;;;;;;;;9.33;7.33;;;;;18.57;55.80;100937.31;5089978;28;45111;-75
2023/07/16 05:09:12;;;;;;;;;9.00;8.00;;;;;18.58;55.79;100949.94;5068698;28;45261;-74
2023/07/16 05:11:38;;;;;;;;;11.33;9.33;;;;;18.52;55.87;100938.25;5090683;28;45333;-74
2023/07/16 05:14:03;;;;;;;;;10.67;9.67;;;;;18.47;56.14;100927.44;5090139;28;45094;-74
2023/07/16 05:16:29;;;;;;;;;11.00;7.67;;;;;18.55;56.04;100944.53;5089334;28;45373;-74
2023/07/16 05:18:54;;;;;;;;;10.67;7.67;;;;;18.48;56.21;100939.16;5089875;28;45061;-74
2023/07/16 05:21:19;;;;;;;;;10.00;7.00;;;;;18.50;56.05;100943.66;5086313;28;45115;-75
2023/07/16 05:23:45;;;;;;;;;11.00;9.00;;;;;18.63;56.06;100957.13;5089386;28;45341;-74
2023/07/16 05:26:10;;;;;;;;;9.67;8.67;;;;;18.55;56.11;100944.53;5090769;28;45229;-74
2023/07/16 05:28:36;;;;;;;;;9.33;9.33;;;;;18.60;56.39;100961.66;5089887;28;48450;-74
2023/07/16 05:31:03;;;;;;;;;8.67;6.67;;;;;18.58;56.20;100958.06;5085880;28;45103;-73
2023/07/16 05:33:28;;;;;;;;;13.67;12.67;;;;;18.66;56.41;100966.19;5086991;28;45472;-76
2023/07/16 05:35:54;;;;;;;;;8.00;8.00;;;;;18.55;56.52;100935.53;5072333;28;47472;-75
2023/07/16 05:38:22;;;;;;;;;12.00;7.33;;;;;18.60;56.55;100948.13;5089925;28;44956;-75
2023/07/16 05:40:48;;;;;;;;;10.33;10.00;;;;;18.64;56.58;100942.72;5091190;28;45218;-74
2023/07/16 05:43:14;;;;;;;;;5.00;5.00;;;;;18.74;56.57;100961.63;5088885;28;45162;-73
2023/07/16 05:45:40;;;;;;;;;8.67;6.67;;;;;18.62;56.25;100934.59;5073857;28;47172;-74
2023/07/16 05:48:05;;;;;;;;;8.67;8.67;;;;;18.81;56.12;100964.28;5090082;28;46075;-79
2023/07/16 05:50:31;;;;;;;;;12.00;6.67;;;;;18.83;55.97;100958.00;5087558;28;45400;-73
2023/07/16 05:52:56;;;;;;;;;9.33;8.33;;;;;18.89;55.90;100963.41;5088275;28;45187;-74
2023/07/16 05:55:21;;;;;;;;;10.67;7.00;;;;;18.89;56.21;100976.94;5091549;28;45109;-75
2023/07/16 05:57:47;;;;;;;;;12.67;7.33;;;;;18.98;55.93;100978.72;5091484;28;50985;-75
2023/07/16 06:00:13;;;;;;;;;12.33;9.00;;;;;19.07;55.74;100981.38;5088830;28;45444;-74
2023/07/16 06:02:39;;;;;;;;;19.33;9.00;;;;;19.14;55.51;100990.38;5092717;28;45166;-74
2023/07/16 06:05:05;;;;;;;;;11.00;6.67;;;;;19.14;55.39;100987.66;5092109;28;45078;-74
2023/07/16 06:07:31;;;;;;;;;11.00;7.00;;;;;18.96;55.49;100976.00;5093209;28;45145;-74
2023/07/16 06:09:56;;;;;;;;;9.67;8.67;;;;;19.08;55.80;100995.81;5091736;28;45278;-72
2023/07/16 06:12:22;;;;;;;;;11.00;7.00;;;;;19.06;55.81;100992.22;5091060;28;45186;-75
2023/07/16 06:14:47;;;;;;;;;11.33;7.67;;;;;18.99;55.81;100985.00;5093079;28;45632;-74
2023/07/16 06:17:12;;;;;;;;;12.00;7.00;;;;;18.99;56.40;100996.75;5077051;28;45145;-73
2023/07/16 06:19:38;;;;;;;;;10.33;8.33;;;;;19.07;56.46;101004.84;5087931;27;45300;-74
2023/07/16 06:22:03;;;;;;;;;9.67;8.33;;;;;19.07;56.00;100997.63;5093227;28;45329;-74
2023/07/16 06:24:29;;;;;;;;;8.67;7.00;;;;;19.14;55.92;100995.78;5095291;28;45436;-73
2023/07/16 06:26:54;;;;;;;;;9.33;6.00;;;;;19.10;55.93;100986.75;5094804;28;45253;-74
2023/07/16 06:29:20;;;;;;;;;9.67;6.00;;;;;19.24;55.73;101011.09;5093747;28;44918;-74
2023/07/16 06:31:56;;;;;;;;;7.33;5.33;;;;;19.26;55.75;101011.97;5098031;28;44799;-74
2023/07/16 06:34:22;;;;;;;;;9.00;6.67;;;;;19.28;55.52;101010.13;5087951;28;45266;-75
2023/07/16 06:36:47;;;;;;;;;7.00;7.00;;;;;19.25;55.59;101004.72;5094901;28;45325;-75
2023/07/16 06:39:13;;;;;;;;;11.00;8.33;;;;;19.35;55.47;101013.72;5094704;28;45079;-73
2023/07/16 06:41:38;;;;;;;;;11.67;7.00;;;;;19.40;55.34;101017.31;5094951;28;45082;-74
2023/07/16 06:44:03;;;;;;;;;9.33;8.67;;;;;19.39;55.39;101009.22;5094061;28;45421;-73
2023/07/16 06:46:29;;;;;;;;;12.33;9.00;;;;;19.38;55.22;101008.28;5093514;28;45169;-74
2023/07/16 06:48:54;;;;;;;;;11.67;8.67;;;;;19.37;55.04;101006.50;5092497;28;45338;-72
2023/07/16 06:51:21;;;;;;;;;10.33;10.33;;;;;19.46;55.06;101017.25;5091337;28;45304;-73
2023/07/16 06:53:47;;;;;;;;;9.33;6.00;;;;;19.39;54.85;101007.38;5087024;28;45398;-73
2023/07/16 06:56:12;;;;;;;;;18.67;9.67;;;;;19.47;54.85;101026.31;5093711;28;45127;-72
2023/07/16 06:58:37;;;;;;;;;11.00;8.00;;;;;19.51;55.03;101028.09;5091509;28;45453;-75
2023/07/16 07:01:03;;;;;;;;;9.67;8.00;;;;;19.63;54.65;101029.81;5088123;28;45071;-72
2023/07/16 07:03:28;;;;;;;;;11.67;7.00;;;;;19.70;54.50;101023.47;5066116;28;47851;-72
2023/07/16 07:05:53;;;;;;;;;7.00;7.00;;;;;19.80;54.24;101029.72;5087438;28;45248;-75
2023/07/16 07:08:19;;;;;;;;;13.00;8.00;;;;;19.75;54.17;101002.66;5091554;28;45088;-73
2023/07/16 07:10:44;;;;;;;;;6.00;6.00;;;;;19.92;53.97;101013.38;5092388;28;45409;-72
2023/07/16 07:13:10;;;;;;;;;6.00;6.00;;;;;19.92;53.56;101009.78;5087884;28;45307;-72
2023/07/16 07:15:35;;;;;;;;;6.33;6.33;;;;;20.05;53.72;101020.50;5085985;28;45592;-72
2023/07/16 07:18:00;;;;;;;;;7.00;6.00;;;;;20.02;53.29;101008.78;5093573;28;45278;-71
2023/07/16 07:20:26;;;;;;;;;13.00;8.67;;;;;20.21;53.49;101020.34;5084930;28;45614;-71
2023/07/16 07:22:51;;;;;;;;;6.67;4.67;;;;;20.24;52.98;101026.69;5065057;28;46885;-72
2023/07/16 07:25:16;;;;;;;;;11.33;6.00;;;;;20.34;52.85;101022.06;5091372;27;64566;-72
2023/07/16 07:27:42;;;;;;;;;6.67;6.00;;;;;20.37;52.34;101034.69;5092916;28;44960;-72
2023/07/16 07:30:07;;;;;;;;;9.00;7.00;;;;;20.40;52.53;101029.22;5089785;28;45156;-72
2023/07/16 07:32:37;;;;;;;;;10.00;8.00;;;;;20.41;52.16;101025.63;5068413;28;47386;-71
2023/07/16 07:35:02;;;;;;;;;10.00;6.00;;;;;20.46;51.89;101029.19;5090791;28;45552;-70
2023/07/16 07:37:27;;;;;;;;;10.33;7.00;;;;;20.49;51.97;101023.72;5088784;28;45055;-70
2023/07/16 07:39:53;;;;;;;;;12.00;6.67;;;;;20.50;51.46;101020.06;5091353;28;45024;-68
2023/07/16 07:42:19;;;;;;;;;16.00;8.67;;;;;20.52;51.37;101030.91;5056837;28;46093;-70
2023/07/16 07:44:44;;;;;;;;;16.00;8.67;;;;;20.51;51.47;101027.31;5070843;28;45000;-69
2023/07/16 07:47:09;;;;;;;;;11.00;5.67;;;;;20.61;51.35;101023.59;5083699;28;49546;-70
2023/07/16 07:49:35;;;;;;;;;12.33;6.33;;;;;20.77;50.69;101034.28;5087067;28;45475;-69
2023/07/16 07:52:00;;;;;;;;;8.00;5.67;;;;;20.91;50.19;101020.56;5086983;28;47620;-68
2023/07/16 07:54:26;;;;;;;;;11.33;6.00;;;;;21.02;50.32;101018.63;5085402;28;45646;-69
2023/07/16 07:56:51;;;;;;;;;6.67;4.00;;;;;21.10;49.90;101027.59;5091876;28;45196;-67
2023/07/16 07:59:16;;;;;;;;;15.33;9.00;;;;;21.11;49.64;101029.38;5092050;28;47000;-68
2023/07/16 08:01:42;;;;;;;;;9.67;6.00;;;;;21.12;49.39;101028.47;5090211;28;46258;-69
2023/07/16 08:04:07;;;;;;;;;7.33;4.00;;;;;21.23;49.00;101032.84;5092873;28;44866;-67
2023/07/16 08:06:32;;;;;;;;;9.00;6.00;;;;;21.26;48.48;101035.53;5089194;28;45103;-68
2023/07/16 08:08:58;;;;;;;;;9.33;6.67;;;;;21.22;48.29;101028.31;5092953;28;44969;-69
2023/07/16 08:11:23;;;;;;;;;6.00;4.00;;;;;21.32;47.97;101038.19;5091530;28;45720;-70
2023/07/16 08:13:49;;;;;;;;;9.67;8.00;;;;;21.39;47.78;101028.13;5093092;28;45099;-70
2023/07/16 08:16:14;;;;;;;;;8.00;4.00;;;;;21.49;47.70;101038.84;5090653;28;45271;-68
2023/07/16 08:18:40;;;;;;;;;7.67;5.00;;;;;21.52;47.38;101032.50;5092701;28;45122;-69
2023/07/16 08:21:05;;;;;;;;;9.00;6.00;;;;;21.60;47.30;101037.81;5081252;28;45852;-68
2023/07/16 08:23:32;;;;;;;;;7.00;7.00;;;;;21.66;47.17;101029.56;5091777;28;45254;-66
2023/07/16 08:25:57;;;;;;;;;11.33;7.67;;;;;21.80;46.94;101030.25;5086626;27;45131;-68
2023/07/16 08:28:23;;;;;;;;;8.67;7.67;;;;;21.89;46.45;101029.19;5069439;28;45218;-67
2023/07/16 08:30:49;;;;;;;;;9.00;5.00;;;;;21.99;46.58;101030.88;5090661;28;45723;-67
2023/07/16 08:33:14;;;;;;;;;7.00;7.00;;;;;22.12;45.69;101041.53;5056219;28;45372;-68
2023/07/16 08:35:41;;;;;;;;;7.33;6.00;;;;;22.17;45.24;101042.34;5090611;28;44930;-66
2023/07/16 08:38:09;;;;;;;;;6.67;5.00;;;;;22.23;44.66;101042.25;5092409;28;45020;-67
2023/07/16 08:40:35;;;;;;;;;8.33;5.33;;;;;22.24;45.18;101039.50;5091881;28;45858;-66
2023/07/16 08:43:03;;;;;;;;;8.67;7.00;;;;;22.17;45.02;101023.31;5090091;27;45223;-67
2023/07/16 08:45:30;;;;;;;;;6.00;5.67;;;;;22.18;44.93;101036.00;5073015;28;45098;-68
2023/07/16 08:47:56;;;;;;;;;9.33;6.00;;;;;22.27;44.66;101046.72;5092557;28;45194;-68
2023/07/16 08:50:22;;;;;;;;;7.00;6.00;;;;;22.31;44.28;101036.72;5090328;28;45220;-65
2023/07/16 08:52:48;;;;;;;;;6.00;5.67;;;;;22.40;43.88;101036.53;5092263;28;45058;-65
2023/07/16 08:55:13;;;;;;;;;5.00;5.00;;;;;22.47;43.67;101043.66;5092045;28;45248;-66
2023/07/16 08:57:40;;;;;;;;;10.33;7.33;;;;;22.56;43.36;101048.94;5093062;28;45016;-67
2023/07/16 09:00:06;;;;;;;;;14.00;9.33;;;;;22.65;44.40;101045.16;5091066;28;45255;-70
2023/07/16 09:02:32;;;;;;;;;7.33;6.00;;;;;22.71;42.98;101047.75;5090554;27;45026;-68
2023/07/16 09:04:58;;;;;;;;;5.00;4.00;;;;;22.75;43.05;101046.78;5089889;28;45258;-68
2023/07/16 09:07:24;;;;;;;;;6.00;6.00;;;;;22.77;42.75;101044.03;5068799;28;45326;-66
2023/07/16 09:09:59;;;;;;;;;10.00;7.00;;;;;22.89;42.71;101041.06;5091455;28;45598;-69
2023/07/16 09:12:25;;;;;;;;;7.67;4.00;;;;;23.03;42.57;101037.16;5091156;28;45012;-68
2023/07/16 09:14:51;;;;;;;;;4.33;4.33;;;;;23.09;41.98;101032.50;5087007;28;45154;-67
2023/07/16 09:17:23;;;;;;;;;5.67;5.00;;;;;23.30;42.36;101036.59;5091082;28;44982;-68
2023/07/16 09:19:51;;;;;;;;;7.33;7.33;;;;;23.52;41.79;101037.00;5087778;28;45249;-70
2023/07/16 09:22:18;;;;;;;;;7.00;5.00;;;;;23.57;40.83;101022.38;5088537;28;45185;-71
2023/07/16 09:24:46;;;;;;;;;4.33;4.33;;;;;23.58;41.15;101029.63;5089467;28;45151;-69
2023/07/16 09:27:12;;;;;;;;;6.00;4.33;;;;;23.51;41.53;101046.16;5066648;28;45126;-70
2023/07/16 09:29:38;;;;;;;;;3.67;3.33;;;;;23.33;41.91;101033.81;5088580;28;45230;-69
2023/07/16 09:32:05;;;;;;;;;5.67;3.67;;;;;23.31;41.80;101052.03;5089510;28;45313;-69
2023/07/16 09:34:31;;;;;;;;;5.33;5.33;;;;;23.17;41.84;101027.78;5069514;28;45163;-70
2023/07/16 09:36:57;;;;;;;;;5.33;4.00;;;;;23.28;41.84;101054.84;5090678;28;45407;-71
2023/07/16 09:39:25;;;;;;;;;6.67;5.00;;;;;23.28;41.85;101043.94;5071920;28;46350;-70
2023/07/16 09:41:50;;;;;;;;;5.00;4.33;;;;;23.26;41.72;101047.59;5072814;28;45416;-71
2023/07/16 09:44:17;;;;;;;;;10.00;4.00;;;;;23.22;41.90;101051.34;5091555;28;45148;-71
2023/07/16 09:46:43;;;;;;;;;4.00;4.00;;;;;23.23;41.66;101047.66;5089310;28;45254;-69
2023/07/16 09:49:09;;;;;;;;;5.00;3.33;;;;;23.33;41.62;101052.91;5089176;28;46016;-71
2023/07/16 09:51:39;;;;;;;;;8.00;6.00;;;;;23.42;41.39;101042.72;5088006;28;45317;-74
2023/07/16 09:54:05;;;;;;;;;5.00;4.00;;;;;23.52;41.12;101041.56;5090331;28;45100;-72
2023/07/16 09:56:43;;;;;;;;;5.33;4.00;;;;;23.65;40.73;101051.28;5075016;28;45138;-70
2023/07/16 09:59:13;;;;;;;;;3.33;3.33;;;;;23.69;41.06;101043.91;5090550;28;45681;-72
2023/07/16 10:01:40;;;;;;;;;5.67;5.33;;;;;23.58;40.43;101029.63;5094577;28;45036;-73
2023/07/16 10:04:16;;;;;;;;;4.67;4.00;;;;;23.65;40.21;101025.84;5093780;28;45058;-72
2023/07/16 10:07:00;;;;;;;;;4.00;4.00;;;;;23.69;39.91;101016.63;5094531;28;45039;-71
2023/07/16 10:09:32;;;;;;;;;5.33;3.67;;;;;23.82;39.67;101034.53;5093452;28;45569;-72
2023/07/16 10:12:10;;;;;;;;;4.67;3.00;;;;;23.91;38.38;101047.06;5092560;28;45126;-71
2023/07/16 10:14:50;;;;;;;;;4.00;3.50;;;;;23.89;37.80;101041.66;5068807;28;45033;-72
2023/07/16 10:17:17;;;;;;;;;4.33;4.33;;;;;23.88;37.74;101041.69;5072498;28;45149;-72
2023/07/16 10:20:05;;;;;;;;;6.00;5.00;;;;;23.84;38.06;101035.41;5092755;28;45816;-70
2023/07/16 10:22:46;;;;;;;;;4.00;3.67;;;;;23.85;37.81;101033.56;5094810;28;45019;-70
2023/07/16 10:25:17;;;;;;;;;4.00;3.67;;;;;23.90;37.37;101032.50;5093833;28;45402;-71
2023/07/16 10:27:44;;;;;;;;;9.67;5.67;;;;;23.79;37.76;101004.59;5096973;28;45316;-72
2023/07/16 10:30:10;;;;;;;;;9.00;6.00;;;;;23.92;37.79;101024.28;5089784;28;46441;-69
2023/07/16 10:32:35;;;;;;;;;6.00;3.67;;;;;23.99;37.67;101034.13;5094700;28;45081;-70
2023/07/16 10:35:04;;;;;;;;;4.67;4.67;;;;;23.99;38.17;101023.22;5076097;28;45099;-71
2023/07/16 10:37:30;;;;;;;;;5.00;4.67;;;;;24.02;37.85;101017.69;5088623;28;45082;-71
2023/07/16 10:39:58;;;;;;;;;4.33;4.33;;;;;24.00;37.92;101005.88;5087887;28;45685;-72
2023/07/16 10:42:24;;;;;;;;;6.33;4.33;;;;;24.14;37.85;101013.75;5064595;28;45074;-72
2023/07/16 10:44:54;;;;;;;;;5.00;4.33;;;;;24.18;38.15;101012.72;5090030;28;45102;-72
2023/07/16 10:47:30;;;;;;;;;3.33;3.33;;;;;24.18;37.13;101010.00;5093034;28;45055;-71
2023/07/16 10:49:56;;;;;;;;;8.00;3.67;;;;;24.25;36.36;101011.63;5091667;28;46884;-73
2023/07/16 10:52:22;;;;;;;;;4.33;3.33;;;;;24.14;36.33;100991.91;5093272;28;45179;-70
2023/07/16 10:54:55;;;;;;;;;5.00;3.33;;;;;24.31;35.80;101009.69;5094421;28;45044;-73
2023/07/16 10:57:21;;;;;;;;;6.00;3.67;;;;;24.37;34.62;101013.16;5094110;28;47479;-72
2023/07/16 10:59:49;;;;;;;;;5.67;3.00;;;;;24.34;34.75;100988.66;5088661;28;45958;-71
2023/07/16 11:02:15;;;;;;;;;4.00;3.00;;;;;24.48;35.03;101007.38;5094710;28;44993;-74
2023/07/16 11:04:42;;;;;;;;;6.00;4.33;;;;;24.48;34.98;100999.19;5094036;28;45000;-73
2023/07/16 11:07:08;;;;;;;;;2.00;2.00;;;;;24.53;34.99;101007.25;5075922;28;44893;-71
2023/07/16 11:09:34;;;;;;;;;5.00;3.00;;;;;24.45;35.72;100999.25;5070640;28;47177;-71
2023/07/16 11:12:10;;;;;;;;;5.33;4.00;;;;;24.51;35.70;101011.88;5086502;28;45222;-70
2023/07/16 11:14:37;;;;;;;;;6.00;4.00;;;;;24.56;35.20;100999.00;5090549;28;45184;-71
2023/07/16 11:17:08;;;;;;;;;4.33;3.33;;;;;24.60;34.93;101000.69;5089181;28;47072;-72
2023/07/16 11:19:37;;;;;;;;;4.67;4.33;;;;;24.69;34.75;101002.31;5094028;28;45072;-71